Umarizal, Brazil
Current Conditions -  °F | °C
As of 10:00 AM on Monday 22 Dec 2014 (Local Time) from SBJU Reporting Station
Few Clouds Few Clouds  
Wind Chill: 88°   Ceiling: Unl
Heat Index: 93°   Visibility: 6mi
Dew Point: 70°   Wind: 6mph
Humidity: 55%   Direction: 110°ESE
Pressure: 30.03"   Gusts: NA
Location:  5.99°S, 37.81°W
Report Text: SBJU 221300Z 11005KT 9999 FEW022 31/21 Q1017
Loading
Personal Weather Stations






























Interactive Weather Map New forecast layout! Learn more

10-Day Weather Forecast

Advertisements
Track Severe Weather on mobile